Terminal Aerodrome Forecast
Issued by NWS Cleveland, OH

Home | Current Version | Previous Version | Text Only | Print | Product List | Glossary On
Versions: 1 2 3 4 5 6 7 8 9 10 11 12 13 14 15 16 17 18 19 20 21 22 23 24
000
FTUS41 KCLE 290641 AAA
TAFMFD
TAF AMD
KMFD 290641Z 2907/3006 35005KT 3/4SM BR OVC002
     FM290800 01003KT 1/2SM FG OVC001
     FM291300 35005KT 3SM BR OVC004
     FM291500 32006KT P6SM OVC008
     FM291800 35007KT P6SM OVC015
     FM300100 36004KT P6SM BKN035=

USA.gov is the U.S. government's official web portal to all federal, state and local government web resources and services.